Online Now
Guests 2
Members   0

24/7 FSX Server
IP: 71.135.74.145
@ PHTO until 7/26/19



Information and tools for flight simulation use only - NOT for real avaition

File Flight Plans Here

PHTO 220653Z 15004KT 10SM OVC050 25/21 A2999 RMK AO2 SLP154 T02500206PHTO 220541Z 2206/2306 23005KT P6SM VCSH BKN050 FM222000 12010KT P6SM VCSH SCT020 OVC050
Aviation Digital Data Service (ADDS)



Other FSX servers